North American — WBL7959 — position and weather

sailwx.info

Track history (hours):
 
Tides and Currents Weather Stations Pressure Air Temp Water Temp Dewpoint Dewpoint Depression Visibility Wind Speed Wind Dir Waves Ship Positions

North American

Owner: NORTH AMERICAN INC, SEATTLE, WA. More information available from US FCC via Universal Licensing System and Coast Guard Vessel Documentation Center.

Last reported at 2017-Jul-18 07:13 UTC. Time now 2017-Jul-20 20:23 UTC.
Position N 58°19' W 135°25'.

Length 32 m; draft 2.5 m.

Type: Fishing. MMSI: 367307370.

Date/timePositionNaut miles runAvg speedWind from/ knotsBaromVisibWave heightAir tempDewpointWater temp
2017-Jul-18 07:13N 58°19' W 135°25'4 0.2
2017-Jul-17 14:17N 58°23' W 135°27'3 9.6
2017-Jul-17 14:00N 58°21' W 135°26'12 5.9
2017-Jul-17 11:56N 58°08' W 135°26'0 0.0
2017-Jul-17 11:10N 58°08' W 135°26'0 0.0
2017-Jul-17 10:55N 58°08' W 135°26'0 0.0
2017-Jul-17 10:28N 58°08' W 135°26'0 0.0
2017-Jul-17 10:00N 58°08' W 135°26'10 1.0
2017-Jul-16 23:04N 58°17' W 135°38'2 9.8
2017-Jul-16 22:52N 58°17' W 135°41'4 9.8
2017-Jul-16 22:30N 58°18' W 135°48'510.8
2017-Jul-16 22:00N 58°20' W 135°58'510.5
2017-Jul-16 21:30N 58°19' W 136°08'  
Track history (hours):
 
Tides and Currents Weather Stations Pressure Air Temp Water Temp Dewpoint Dewpoint Depression Visibility Wind Speed Wind Dir Waves Ship Positions

North American

Owner: NORTH AMERICAN INC, SEATTLE, WA. More information available from US FCC via Universal Licensing System and Coast Guard Vessel Documentation Center.

Last reported at 2017-Jul-18 07:13 UTC. Time now 2017-Jul-20 20:23 UTC.
Position N 58°19' W 135°25'.

Length 32 m; draft 2.5 m.

Type: Fishing. MMSI: 367307370.

Date/timePositionNaut miles runAvg speedWind from/ knotsBaromVisibWave heightAir tempDewpointWater temp
2017-Jul-18 07:13N 58°19' W 135°25'4 0.2
2017-Jul-17 14:17N 58°23' W 135°27'3 9.6
2017-Jul-17 14:00N 58°21' W 135°26'12 5.9
2017-Jul-17 11:56N 58°08' W 135°26'0 0.0
2017-Jul-17 11:10N 58°08' W 135°26'0 0.0
2017-Jul-17 10:55N 58°08' W 135°26'0 0.0
2017-Jul-17 10:28N 58°08' W 135°26'0 0.0
2017-Jul-17 10:00N 58°08' W 135°26'10 1.0
2017-Jul-16 23:04N 58°17' W 135°38'2 9.8
2017-Jul-16 22:52N 58°17' W 135°41'4 9.8
2017-Jul-16 22:30N 58°18' W 135°48'510.8
2017-Jul-16 22:00N 58°20' W 135°58'510.5
2017-Jul-16 21:30N 58°19' W 136°08'  

Dump ship's entire track history